14°C
Woerden, The Nederlands
Taal:  Nederlands
Updated20/10/2020 20:05 
 

Nearby METAR Reports

EHAM - Amsterdam/Schiph, Netherlands
Distance from station: N 27km
Updated: 20/10/2020 19:55
Helder
Helder
 Wind van Z
Wind: Z 19 km/h
Temperatuur: 14°C
Dauwpunt: 11°C
Vochtigheid: 82%
Barometer: 1005 hPa
Overzicht: Helder
Visibility: greater than 10 km
2020/10/20 17:55 EHAM 201755Z 18010KT CAVOK 14/11 Q1005 NOSIG
EHRD - Rotterdam Airpor, Netherlands
Distance from station: WZW 30km
Updated: 20/10/2020 19:55
Gedeeltelijk bewolkt
Gedeeltelijk bewolkt
 Wind van Z
Wind: Z 20 km/h
Temperatuur: 15°C
Dauwpunt: 12°C
Vochtigheid: 82%
Barometer: 1005 hPa
Clouds: Gedeeltelijk bewolkt
Visibility: 10 km
2020/10/20 17:55 EHRD 201755Z AUTO 19011KT 160V220 9999 NSC 15/12 Q1005 NOSIG
 
EHGR - Gilze-Rijen Rnla, Netherlands
Distance from station: Z 57km
Updated: 20/10/2020 19:55
Meestal bewolkt
Meestal bewolkt
 Wind van Z
Wind: Z 20 km/h
Temperatuur: 15°C
Dauwpunt: 12°C
Vochtigheid: 82%
Barometer: 1007 hPa
Clouds: Meestal bewolkt
Visibility: 10 km
Cloud details: Meestal bewolkt 2316 m
Meestal bewolkt 2530 m
Meestal bewolkt 2743 m
2020/10/20 17:55 EHGR 201755Z AUTO 18011KT 120V220 9999 BKN076 BKN083 BKN090 15/12 Q1007 BLU NOSIG
EHDL - Deelen Rnlafb, Netherlands
Distance from station: O 71km
Updated: 20/10/2020 19:55
Zwaar bewolkt
Zwaar bewolkt
 Wind van Z
Wind: Z 17 km/h
Temperatuur: 13°C
Dauwpunt: 13°C
Vochtigheid: 100%
Barometer: 1007 hPa
Clouds: Zwaar bewolkt
Visibility: 10 km
Cloud details: Zwaar bewolkt 3353 m
2020/10/20 17:55 EHDL 201755Z AUTO 17009KT 120V220 9999 OVC110 13/13 Q1007 BLU
 
EHVK - Volkel Rnlafb, Netherlands
Distance from station: ZO 77km
Updated: 20/10/2020 19:55
Zwaar bewolkt
Zwaar bewolkt
 Wind van Z
Wind: Z 15 km/h
Temperatuur: 14°C
Dauwpunt: 12°C
Vochtigheid: 88%
Barometer: 1007 hPa
Clouds: Zwaar bewolkt
Visibility: 10 km
Cloud details: Gedeeltelijk bewolkt 2286 m
Meestal bewolkt 2835 m
Zwaar bewolkt 3048 m
2020/10/20 17:55 EHVK 201755Z AUTO 18008KT 150V220 9999 SCT075 BKN093 OVC100 14/12 Q1007 BLU
EHWO - Woensdrecht Rnla, Netherlands
Distance from station: ZZW 78km
Updated: 20/10/2020 20:02
Zwaar bewolkt
Zwaar bewolkt
 Wind van Z
Wind: Z 13 km/h
Temperatuur: 15°C
Dauwpunt: 13°C
Vochtigheid: 88%
Barometer: 1006 hPa
Clouds: Zwaar bewolkt
Visibility: 10 km
Cloud details: Gedeeltelijk bewolkt 488 m
Meestal bewolkt 2073 m
Zwaar bewolkt 2316 m
2020/10/20 18:02 EHWO 201802Z AUTO 19007KT 150V240 9999 SCT016 BKN068 OVC076 15/13 Q1006 WHT
 
EHEH - Eindhoven Rnlafb, Netherlands
Distance from station: ZZO 81km
Updated: 20/10/2020 19:55
Zwaar bewolkt
Zwaar bewolkt
 Wind van Z
Wind: Z 19 km/h
Temperatuur: 14°C
Dauwpunt: 13°C
Vochtigheid: 94%
Barometer: 1007 hPa
Clouds: Zwaar bewolkt
Visibility: 10 km
Cloud details: Gedeeltelijk bewolkt 1890 m
Meestal bewolkt 2347 m
Zwaar bewolkt 2499 m
2020/10/20 17:55 EHEH 201755Z AUTO 17010KT 140V200 9999 SCT062 BKN077 OVC082 14/13 Q1007 BLU NOSIG
EHSC - Goeree Le Sea, Netherlands
Distance from station: W 81km
Updated: 20/10/2020 19:55

 Wind van Z
Wind: Z 35 km/h
Temperatuur: 15°C
Dauwpunt: 13°C
Vochtigheid: 88%
Barometer: 1005 hPa
Visibility: 10 km
2020/10/20 17:55 EHSC 201755Z AUTO 19019KT 9999 ///////// 15/13 Q1005 W14/H9